Terminal Aerodrome Forecast
Issued by NWS

Home | Current Version | Previous Version | Text Only | Print | Product List | Glossary On
Versions: 1 2 3 4 5 6 7 8 9 10 11 12 13 14 15 16 17 18 19 20 21 22 23
000
FTAK31 PAJN 221700
TAFAYA
TAF
PAYA 221722Z 2218/2318 24006KT P6SM SCT090
     FM230300 25003KT P6SM BKN100
     FM231000 12006KT P6SM OVC100
     FM231500 09004KT P6SM VCSH BKN050 OVC080
      AMD LTD TO CLD VIS AND WIND 2301/2310=

USA.gov is the U.S. government's official web portal to all federal, state and local government web resources and services.